Airport ID:KO69
Update Time (UTC):03/03/2021 03:08
Wind Speed (Knots):3
Wind Direction (Magnetic):300
Temperature (°C):10
Dew Point (°C):4
Humidity (%):65
Altimeter (inHg):29.86
Density Altitude (Feet):
Visibility:10+
Clouds (Hundreds of feet):CLR
Present Weather:
METAR:METAR KO69 030305Z AUTO VRB03KT 10SM CLR 10/04 A2985 RMK A01

The data displayed is for advisory purposes only and is not to be used for flight planning or operations.